Time;durP1;ratioP1;P1;durP2;ratioP2;P2;SDS_P1;SDS_P2;PMS_P1;PMS_P2;Temp;Humidity;BMP_temperature;BMP_pressure;BME280_temperature;BME280_humidity;BME280_pressure;Samples;Min_cycle;Max_cycle;Signal;HPM_P1;HPM_P2
2022/06/26 00:01:19;;;;;;;17.27;9.60;;;;;;;;;;5054367;28;20043;-73
2022/06/26 00:03:45;;;;;;;13.85;10.43;;;;;;;;;;5051969;28;20044;-73
2022/06/26 00:06:11;;;;;;;16.13;10.07;;;;;;;;;;5054393;28;20037;-73
2022/06/26 00:08:37;;;;;;;13.85;9.20;;;;;;;;;;5053086;28;20132;-73
2022/06/26 00:11:03;;;;;;;13.48;8.60;;;;;;;;;;5051636;28;20127;-73
2022/06/26 00:13:30;;;;;;;15.32;9.65;;;;;;;;;;5052858;28;20045;-73
2022/06/26 00:15:56;;;;;;;15.90;10.00;;;;;;;;;;5052218;28;20045;-73
2022/06/26 00:18:22;;;;;;;12.98;9.20;;;;;;;;;;5053244;28;20045;-73
2022/06/26 00:20:48;;;;;;;16.88;10.13;;;;;;;;;;5052624;28;20045;-73
2022/06/26 00:23:14;;;;;;;14.32;9.32;;;;;;;;;;5054055;28;20032;-73
2022/06/26 00:25:40;;;;;;;14.60;9.73;;;;;;;;;;5053211;28;20041;-73
2022/06/26 00:28:06;;;;;;;13.95;9.35;;;;;;;;;;5053469;28;20068;-73
2022/06/26 00:30:32;;;;;;;14.65;9.77;;;;;;;;;;5053893;28;20041;-73
2022/06/26 00:32:58;;;;;;;15.93;10.85;;;;;;;;;;5051232;28;20128;-72
2022/06/26 00:35:24;;;;;;;16.00;10.70;;;;;;;;;;5052801;28;20145;-71
2022/06/26 00:37:51;;;;;;;16.38;9.50;;;;;;;;;;5053179;28;20120;-75
2022/06/26 00:40:17;;;;;;;18.50;13.00;;;;;;;;;;5051665;28;20478;-79
2022/06/26 00:42:43;;;;;;;24.40;15.73;;;;;;;;;;5052367;28;20041;-82
2022/06/26 00:45:09;;;;;;;24.88;15.55;;;;;;;;;;5052064;28;20048;-77
2022/06/26 00:47:35;;;;;;;23.70;14.77;;;;;;;;;;5052376;28;20095;-72
2022/06/26 00:50:01;;;;;;;17.60;11.90;;;;;;;;;;5051728;28;20041;-72
2022/06/26 00:52:28;;;;;;;23.10;12.88;;;;;;;;;;5052297;28;20044;-72
2022/06/26 00:54:54;;;;;;;22.13;11.32;;;;;;;;;;5050714;28;20056;-72
2022/06/26 00:57:21;;;;;;;17.35;11.30;;;;;;;;;;5052064;28;20041;-72
2022/06/26 00:59:48;;;;;;;19.52;11.98;;;;;;;;;;5050823;28;20091;-72
2022/06/26 01:02:14;;;;;;;22.17;11.20;;;;;;;;;;5053221;28;20044;-72
2022/06/26 01:04:40;;;;;;;20.42;10.88;;;;;;;;;;5053492;28;20033;-72
2022/06/26 01:07:07;;;;;;;22.98;11.38;;;;;;;;;;5051843;28;20118;-72
2022/06/26 01:09:34;;;;;;;20.60;11.10;;;;;;;;;;5052098;28;20095;-71
2022/06/26 01:12:00;;;;;;;17.42;9.52;;;;;;;;;;5051385;28;20504;-71
2022/06/26 01:14:26;;;;;;;13.98;8.52;;;;;;;;;;5050997;28;20052;-71
2022/06/26 01:16:52;;;;;;;16.75;8.93;;;;;;;;;;5052236;28;20060;-71
2022/06/26 01:19:20;;;;;;;15.93;8.77;;;;;;;;;;5051838;28;20120;-71
2022/06/26 01:21:46;;;;;;;14.95;8.85;;;;;;;;;;5051999;28;20044;-71
2022/06/26 01:24:14;;;;;;;10.07;6.80;;;;;;;;;;5051250;28;20033;-71
2022/06/26 01:26:40;;;;;;;10.38;6.45;;;;;;;;;;5051546;28;20049;-71
2022/06/26 01:29:07;;;;;;;12.50;6.32;;;;;;;;;;5050952;28;20547;-71
2022/06/26 01:31:34;;;;;;;11.02;6.00;;;;;;;;;;5052723;28;20045;-71
2022/06/26 01:34:00;;;;;;;13.38;6.35;;;;;;;;;;5052363;28;20051;-71
2022/06/26 01:36:26;;;;;;;10.80;5.97;;;;;;;;;;5050933;28;20036;-71
2022/06/26 01:38:52;;;;;;;12.98;6.20;;;;;;;;;;5050696;28;20494;-71
2022/06/26 01:41:18;;;;;;;10.82;6.15;;;;;;;;;;5052596;28;20041;-71
2022/06/26 01:43:44;;;;;;;11.05;5.07;;;;;;;;;;5050266;28;20044;-71
2022/06/26 01:46:10;;;;;;;10.02;5.85;;;;;;;;;;5050885;28;20538;-70
2022/06/26 01:48:38;;;;;;;9.10;5.78;;;;;;;;;;5034606;28;20053;-71
2022/06/26 01:51:04;;;;;;;12.52;5.82;;;;;;;;;;5049836;28;20049;-71
2022/06/26 01:53:30;;;;;;;11.00;5.30;;;;;;;;;;5034761;28;20478;-71
2022/06/26 01:55:57;;;;;;;10.95;5.82;;;;;;;;;;5050217;28;20110;-71
2022/06/26 01:58:23;;;;;;;11.95;6.78;;;;;;;;;;5034497;28;20062;-71
2022/06/26 02:00:53;;;;;;;10.02;5.00;;;;;;;;;;5051580;28;20486;-71
2022/06/26 02:03:20;;;;;;;10.88;5.97;;;;;;;;;;5050466;28;20048;-71
2022/06/26 02:05:46;;;;;;;7.32;4.45;;;;;;;;;;5050671;28;20037;-71
2022/06/26 02:08:12;;;;;;;6.47;4.32;;;;;;;;;;5051874;28;20441;-71
2022/06/26 02:13:45;;;;;;;7.28;4.18;;;;;;;;;;5052471;28;20049;-71
2022/06/26 02:16:11;;;;;;;10.85;4.28;;;;;;;;;;5052094;28;20045;-71
2022/06/26 02:18:38;;;;;;;10.65;4.00;;;;;;;;;;5033441;28;20044;-71
2022/06/26 02:21:06;;;;;;;8.18;4.32;;;;;;;;;;5051466;28;20116;-71
2022/06/26 02:23:32;;;;;;;7.32;3.85;;;;;;;;;;5051312;28;20098;-71
2022/06/26 02:25:58;;;;;;;8.60;4.43;;;;;;;;;;5049455;28;20049;-71
2022/06/26 02:28:24;;;;;;;9.15;4.22;;;;;;;;;;5052118;28;20037;-71
2022/06/26 02:30:50;;;;;;;7.22;3.83;;;;;;;;;;5050200;28;20047;-71
2022/06/26 02:33:16;;;;;;;9.18;5.05;;;;;;;;;;5051292;28;20124;-72
2022/06/26 02:35:43;;;;;;;7.65;4.15;;;;;;;;;;5050653;28;20494;-72
2022/06/26 02:38:09;;;;;;;7.57;3.33;;;;;;;;;;5049882;28;20056;-72
2022/06/26 02:40:35;;;;;;;7.53;4.25;;;;;;;;;;5053501;28;20086;-72
2022/06/26 02:43:01;;;;;;;7.13;3.15;;;;;;;;;;5055687;28;20036;-72
2022/06/26 02:45:27;;;;;;;6.80;3.42;;;;;;;;;;5053909;28;20550;-72
2022/06/26 02:47:53;;;;;;;6.30;3.10;;;;;;;;;;5054178;28;20055;-72
2022/06/26 02:50:19;;;;;;;6.10;2.70;;;;;;;;;;5055782;28;20037;-72
2022/06/26 02:52:45;;;;;;;5.50;2.50;;;;;;;;;;5054009;28;20033;-72
2022/06/26 02:55:12;;;;;;;6.82;3.47;;;;;;;;;;5055720;28;20127;-72
2022/06/26 02:57:38;;;;;;;5.53;2.92;;;;;;;;;;5054627;28;20049;-72
2022/06/26 03:00:04;;;;;;;6.40;2.97;;;;;;;;;;5053221;28;20045;-72
2022/06/26 03:02:31;;;;;;;6.10;2.33;;;;;;;;;;5054579;28;20432;-72
2022/06/26 03:04:57;;;;;;;5.93;2.35;;;;;;;;;;5055100;28;20040;-72
2022/06/26 03:07:23;;;;;;;5.88;2.50;;;;;;;;;;5053575;28;20037;-72
2022/06/26 03:09:49;;;;;;;7.57;2.80;;;;;;;;;;5055131;28;20048;-72
2022/06/26 03:12:15;;;;;;;6.43;2.70;;;;;;;;;;5054322;28;20049;-72
2022/06/26 03:14:41;;;;;;;5.97;2.58;;;;;;;;;;5053748;28;20568;-72
2022/06/26 03:17:07;;;;;;;5.90;3.10;;;;;;;;;;5054931;28;20119;-72
2022/06/26 03:19:33;;;;;;;6.25;3.05;;;;;;;;;;5054101;28;20041;-72
2022/06/26 03:21:59;;;;;;;7.53;3.30;;;;;;;;;;5054274;28;20037;-72
2022/06/26 03:24:26;;;;;;;8.63;3.53;;;;;;;;;;5055374;28;20037;-72
2022/06/26 03:26:52;;;;;;;6.95;2.75;;;;;;;;;;5054988;28;20036;-72
2022/06/26 03:29:18;;;;;;;9.02;3.50;;;;;;;;;;5036733;28;20519;-72
2022/06/26 03:31:44;;;;;;;6.15;3.05;;;;;;;;;;5053729;28;20371;-73
2022/06/26 03:34:10;;;;;;;6.13;3.40;;;;;;;;;;5053414;28;20047;-72
2022/06/26 03:36:36;;;;;;;6.30;3.13;;;;;;;;;;5053398;28;20119;-73
2022/06/26 03:39:02;;;;;;;7.93;2.83;;;;;;;;;;5053406;28;20049;-73
2022/06/26 03:41:28;;;;;;;4.68;2.85;;;;;;;;;;5052876;28;20143;-72
2022/06/26 03:43:54;;;;;;;6.13;3.38;;;;;;;;;;5053331;28;20041;-73
2022/06/26 03:46:20;;;;;;;5.45;3.22;;;;;;;;;;5054604;28;20479;-71
2022/06/26 03:48:46;;;;;;;6.32;2.78;;;;;;;;;;5035809;28;20098;-73
2022/06/26 03:51:13;;;;;;;6.03;2.28;;;;;;;;;;5054338;28;20072;-73
2022/06/26 03:53:39;;;;;;;5.40;2.35;;;;;;;;;;5053620;28;20051;-72
2022/06/26 03:56:05;;;;;;;4.68;2.03;;;;;;;;;;5052356;28;20486;-72
2022/06/26 03:58:31;;;;;;;4.45;2.08;;;;;;;;;;5054620;28;20063;-73
2022/06/26 04:00:58;;;;;;;4.95;1.92;;;;;;;;;;5054208;28;20075;-72
2022/06/26 04:03:24;;;;;;;5.10;2.05;;;;;;;;;;5052312;28;20041;-72
2022/06/26 04:05:50;;;;;;;4.78;2.13;;;;;;;;;;5054145;28;20039;-72
2022/06/26 04:08:16;;;;;;;6.72;2.60;;;;;;;;;;5054596;28;20041;-72
2022/06/26 04:10:43;;;;;;;4.88;2.30;;;;;;;;;;5052186;28;20041;-72
2022/06/26 04:13:11;;;;;;;5.85;2.47;;;;;;;;;;5052798;28;20053;-71
2022/06/26 04:15:38;;;;;;;6.43;3.35;;;;;;;;;;5052943;28;20132;-72
2022/06/26 04:18:04;;;;;;;5.30;2.85;;;;;;;;;;5051912;28;20072;-72
2022/06/26 04:20:30;;;;;;;5.60;3.20;;;;;;;;;;5054081;28;20082;-72
2022/06/26 04:22:57;;;;;;;5.05;2.83;;;;;;;;;;5053714;28;20071;-72
2022/06/26 04:25:24;;;;;;;5.15;3.33;;;;;;;;;;5053454;28;20152;-72
2022/06/26 04:27:50;;;;;;;5.88;3.60;;;;;;;;;;5052487;28;20029;-72
2022/06/26 04:30:16;;;;;;;7.03;3.50;;;;;;;;;;5053883;28;20120;-72
2022/06/26 04:32:42;;;;;;;6.85;3.75;;;;;;;;;;5052866;28;20497;-72
2022/06/26 04:35:09;;;;;;;7.75;4.88;;;;;;;;;;5035943;28;20045;-72
2022/06/26 04:37:36;;;;;;;7.65;5.22;;;;;;;;;;5052644;28;20063;-72
2022/06/26 04:40:03;;;;;;;8.05;5.22;;;;;;;;;;5053314;28;20425;-72
2022/06/26 04:42:29;;;;;;;9.38;6.05;;;;;;;;;;5052662;28;20045;-73
2022/06/26 04:44:55;;;;;;;8.15;5.32;;;;;;;;;;5051548;28;20043;-72
2022/06/26 04:47:21;;;;;;;9.40;6.32;;;;;;;;;;5053491;28;20478;-73
2022/06/26 04:49:47;;;;;;;9.38;6.25;;;;;;;;;;5053281;28;20556;-72
2022/06/26 04:52:14;;;;;;;9.70;6.05;;;;;;;;;;5051578;28;20076;-73
2022/06/26 04:54:40;;;;;;;11.07;6.68;;;;;;;;;;5053605;28;20375;-72
2022/06/26 04:57:06;;;;;;;10.75;8.00;;;;;;;;;;5053073;28;20398;-73
2022/06/26 04:59:33;;;;;;;11.13;7.38;;;;;;;;;;5051366;28;20490;-72
2022/06/26 05:01:59;;;;;;;9.27;7.38;;;;;;;;;;5051851;28;20124;-72
2022/06/26 05:04:25;;;;;;;11.98;8.85;;;;;;;;;;5051387;28;20120;-72
2022/06/26 05:06:51;;;;;;;12.63;8.35;;;;;;;;;;5051040;28;20064;-72
2022/06/26 05:09:17;;;;;;;13.90;8.85;;;;;;;;;;5053324;28;20044;-72
2022/06/26 05:11:43;;;;;;;13.23;8.65;;;;;;;;;;5051839;28;20093;-72
2022/06/26 05:14:10;;;;;;;11.73;8.05;;;;;;;;;;5034312;28;20128;-72
2022/06/26 05:16:36;;;;;;;14.25;8.80;;;;;;;;;;5052059;28;20457;-73
2022/06/26 05:19:02;;;;;;;10.50;8.18;;;;;;;;;;5051234;28;20547;-73
2022/06/26 05:21:28;;;;;;;12.80;8.02;;;;;;;;;;5051267;28;20037;-73
2022/06/26 05:23:55;;;;;;;11.63;8.77;;;;;;;;;;5052545;28;20474;-73
2022/06/26 05:26:22;;;;;;;10.30;7.85;;;;;;;;;;5051963;28;20402;-72
2022/06/26 05:28:48;;;;;;;10.40;8.38;;;;;;;;;;5034157;28;20055;-73
2022/06/26 05:31:14;;;;;;;12.35;9.88;;;;;;;;;;5051707;28;20045;-72
2022/06/26 05:33:40;;;;;;;14.70;9.73;;;;;;;;;;5051547;28;20543;-73
2022/06/26 05:36:07;;;;;;;14.68;10.68;;;;;;;;;;5051652;28;20045;-73
2022/06/26 05:38:34;;;;;;;13.25;10.45;;;;;;;;;;5052619;28;20600;-72
2022/06/26 05:41:00;;;;;;;15.25;10.48;;;;;;;;;;5050111;28;20037;-72
2022/06/26 05:43:26;;;;;;;16.48;12.48;;;;;;;;;;5051305;28;20037;-73
2022/06/26 05:45:52;;;;;;;17.08;12.05;;;;;;;;;;5051082;28;20094;-75
2022/06/26 05:48:18;;;;;;;17.38;11.55;;;;;;;;;;5051751;28;20137;-73
2022/06/26 05:50:44;;;;;;;17.60;12.30;;;;;;;;;;5051288;28;20111;-73
2022/06/26 05:53:10;;;;;;;16.88;12.43;;;;;;;;;;5034502;28;20532;-73
2022/06/26 05:55:38;;;;;;;19.08;13.43;;;;;;;;;;5050705;28;20087;-71
2022/06/26 05:58:06;;;;;;;17.67;12.27;;;;;;;;;;5033997;28;20175;-74
2022/06/26 06:00:33;;;;;;;18.27;11.98;;;;;;;;;;5051156;28;20033;-72
2022/06/26 06:02:59;;;;;;;15.48;11.60;;;;;;;;;;5033613;28;20482;-72
2022/06/26 06:05:25;;;;;;;15.07;12.05;;;;;;;;;;5052528;28;20043;-73
2022/06/26 06:07:52;;;;;;;18.27;12.35;;;;;;;;;;5050851;28;20425;-73
2022/06/26 06:10:19;;;;;;;17.20;12.65;;;;;;;;;;5051705;28;20055;-73
2022/06/26 06:12:45;;;;;;;15.60;11.27;;;;;;;;;;5051286;28;20405;-73
2022/06/26 06:15:12;;;;;;;16.90;12.95;;;;;;;;;;5034145;28;20072;-72
2022/06/26 06:17:41;;;;;;;15.52;10.45;;;;;;;;;;5050724;28;20459;-73
2022/06/26 06:20:07;;;;;;;13.65;10.73;;;;;;;;;;5050531;28;20052;-72
2022/06/26 06:22:33;;;;;;;14.77;10.13;;;;;;;;;;5052268;28;20442;-72
2022/06/26 06:24:59;;;;;;;16.20;10.00;;;;;;;;;;5049471;28;20520;-73
2022/06/26 06:27:25;;;;;;;14.80;10.00;;;;;;;;;;5040999;28;20064;-73
2022/06/26 06:29:51;;;;;;;16.95;10.48;;;;;;;;;;5048942;28;20056;-73
2022/06/26 06:32:18;;;;;;;17.67;11.00;;;;;;;;;;5051426;28;20037;-73
2022/06/26 06:34:44;;;;;;;14.18;10.48;;;;;;;;;;5034043;28;20045;-73
2022/06/26 06:37:10;;;;;;;13.27;9.70;;;;;;;;;;5051258;28;20041;-73
2022/06/26 06:39:36;;;;;;;14.80;10.93;;;;;;;;;;5050663;28;20047;-73
2022/06/26 06:42:03;;;;;;;13.82;10.68;;;;;;;;;;5051211;28;20486;-73
2022/06/26 06:44:29;;;;;;;13.55;10.25;;;;;;;;;;5049946;28;20429;-72
2022/06/26 06:46:55;;;;;;;16.23;10.55;;;;;;;;;;5035447;28;20054;-72
2022/06/26 06:49:21;;;;;;;18.10;11.75;;;;;;;;;;5033864;28;20045;-73
2022/06/26 06:51:47;;;;;;;16.10;11.40;;;;;;;;;;5031022;28;20083;-73
2022/06/26 06:54:13;;;;;;;15.38;11.32;;;;;;;;;;5030335;28;20045;-73
2022/06/26 06:56:40;;;;;;;15.82;10.95;;;;;;;;;;5030508;28;20549;-73
2022/06/26 06:59:06;;;;;;;15.75;11.57;;;;;;;;;;5029169;28;20041;-73
2022/06/26 07:01:32;;;;;;;19.48;13.27;;;;;;;;;;5032055;28;20049;-72
2022/06/26 07:04:01;;;;;;;16.90;13.05;;;;;;;;;;5022170;28;20094;-73
2022/06/26 07:06:28;;;;;;;17.65;11.88;;;;;;;;;;5049436;28;20041;-73
2022/06/26 07:08:54;;;;;;;19.10;11.30;;;;;;;;;;5051061;28;20135;-73
2022/06/26 07:11:20;;;;;;;15.40;10.65;;;;;;;;;;5050398;28;20086;-73
2022/06/26 07:13:46;;;;;;;16.52;10.82;;;;;;;;;;5049241;28;20524;-72
2022/06/26 07:16:12;;;;;;;16.48;11.68;;;;;;;;;;5051435;28;20558;-74
2022/06/26 07:18:38;;;;;;;14.25;10.43;;;;;;;;;;5049570;28;20521;-73
2022/06/26 07:21:05;;;;;;;15.23;10.60;;;20.00;99.90;;;;;;5031126;28;20048;-77
2022/06/26 07:23:31;;;;;;;12.70;9.45;;;20.00;99.90;;;;;;5031249;28;20049;-75
2022/06/26 07:25:56;;;;;;;14.30;8.60;;;20.00;99.90;;;;;;5049561;28;20041;-74
2022/06/26 07:28:23;;;;;;;11.00;7.88;;;19.90;99.90;;;;;;5052674;28;20044;-74
2022/06/26 07:30:49;;;;;;;12.70;9.30;;;;;;;;;;5053408;28;20126;-75
2022/06/26 07:35:59;;;;;;;14.03;8.47;;;;;;;;;;5033620;28;20050;-74
2022/06/26 07:38:25;;;;;;;12.57;8.40;;;19.60;99.90;;;;;;5031880;28;20049;-73
2022/06/26 07:40:52;;;;;;;11.68;7.95;;;;;;;;;;5039906;28;20393;-74
2022/06/26 07:43:17;;;;;;;11.60;8.02;;;20.10;99.90;;;;;;5031447;28;20461;-73
2022/06/26 07:45:43;;;;;;;15.02;9.65;;;;;;;;;;5032770;28;20042;-72
2022/06/26 07:48:09;;;;;;;10.57;7.80;;;;;;;;;;5051009;28;20136;-73
2022/06/26 07:50:36;;;;;;;11.20;7.47;;;;;;;;;;5051004;28;20076;-72
2022/06/26 07:53:02;;;;;;;8.93;5.85;;;;;;;;;;5019727;28;20069;-72
2022/06/26 07:55:28;;;;;;;9.45;5.90;;;;;;;;;;5030797;28;20045;-74
2022/06/26 07:57:53;;;;;;;8.15;4.97;;;20.30;99.90;;;;;;5045987;28;20040;-74
2022/06/26 08:00:19;;;;;;;7.55;4.60;;;20.40;99.90;;;;;;5033531;28;20060;-76
2022/06/26 08:02:45;;;;;;;8.50;5.28;;;19.90;99.90;;;;;;5050509;28;20049;-76
2022/06/26 08:05:12;;;;;;;8.85;4.40;;;20.50;99.90;;;;;;5051786;28;20041;-75
2022/06/26 08:07:38;;;;;;;10.10;4.63;;;;;;;;;;5050229;28;20052;-76
2022/06/26 08:10:05;;;;;;;7.60;4.20;;;20.50;99.90;;;;;;5038005;28;20080;-75
2022/06/26 08:12:31;;;;;;;5.80;3.28;;;;;;;;;;5046704;28;20068;-73
2022/06/26 08:14:57;;;;;;;5.55;3.33;;;;;;;;;;5031188;28;20165;-73
2022/06/26 08:17:23;;;;;;;6.43;2.80;;;20.60;99.90;;;;;;5027683;28;20127;-72
2022/06/26 08:19:49;;;;;;;6.03;2.88;;;;;;;;;;5050033;28;20128;-71
2022/06/26 08:22:15;;;;;;;5.93;2.97;;;;;;;;;;5050049;28;20037;-74
2022/06/26 08:24:44;;;;;;;6.70;3.35;;;20.60;99.90;;;;;;5032963;28;20485;-75
2022/06/26 08:27:10;;;;;;;6.32;2.97;;;;;;;;;;5036766;28;20044;-73
2022/06/26 08:29:36;;;;;;;7.47;3.03;;;;;;;;;;5028839;28;20044;-75
2022/06/26 08:32:02;;;;;;;6.03;3.25;;;;;;;;;;5031983;28;20092;-75
2022/06/26 08:34:28;;;;;;;6.60;3.50;;;;;;;;;;5045554;28;20082;-73
2022/06/26 08:36:55;;;;;;;6.20;3.42;;;;;;;;;;5046092;28;20049;-70
2022/06/26 08:39:22;;;;;;;6.82;3.10;;;;;;;;;;5034349;28;20093;-70
2022/06/26 08:41:48;;;;;;;7.05;3.80;;;;;;;;;;5049389;28;20036;-70
2022/06/26 08:44:15;;;;;;;6.55;3.70;;;;;;;;;;5049534;28;20041;-69
2022/06/26 08:46:44;;;;;;;5.18;3.10;;;;;;;;;;5048672;28;20036;-70
2022/06/26 08:49:15;;;;;;;7.70;3.45;;;;;;;;;;5031431;28;20457;-72
2022/06/26 08:51:43;;;;;;;8.05;3.55;;;;;;;;;;5031838;28;20123;-72
2022/06/26 08:54:09;;;;;;;5.68;2.60;;;;;;;;;;5032805;28;21100;-69
2022/06/26 08:56:36;;;;;;;6.30;2.30;;;;;;;;;;5039624;28;20052;-71
2022/06/26 08:59:03;;;;;;;5.78;2.20;;;;;;;;;;5030898;28;20534;-71
2022/06/26 09:01:29;;;;;;;6.10;2.90;;;;;;;;;;5035944;28;20119;-71
2022/06/26 09:03:55;;;;;;;6.15;2.72;;;;;;;;;;5041509;28;20028;-72
2022/06/26 09:06:21;;;;;;;6.97;2.75;;;;;;;;;;5038788;28;20041;-71
2022/06/26 09:08:50;;;;;;;6.18;2.78;;;;;;;;;;5038620;28;20045;-74
2022/06/26 09:11:18;;;;;;;5.75;3.05;;;;;;;;;;5042515;28;20656;-73
2022/06/26 09:13:44;;;;;;;6.65;3.08;;;;;;;;;;5041260;28;20044;-73
2022/06/26 09:16:11;;;;;;;5.93;2.83;;;;;;;;;;5027655;28;20124;-75
2022/06/26 09:18:38;;;;;;;5.80;2.83;;;;;;;;;;5028627;28;20045;-73
2022/06/26 09:21:06;;;;;;;6.20;2.90;;;;;;;;;;5029305;28;20052;-69
2022/06/26 09:23:33;;;;;;;6.95;3.78;;;;;;;;;;5044149;28;20040;-70
2022/06/26 09:25:59;;;;;;;6.70;3.55;;;;;;;;;;5031579;28;20041;-71
2022/06/26 09:28:26;;;;;;;7.10;3.65;;;;;;;;;;5046057;28;20029;-72
2022/06/26 09:30:59;;;;;;;6.57;3.08;;;;;;;;;;5041480;28;20038;-74
2022/06/26 09:33:27;;;;;;;7.30;2.67;;;;;;;;;;5019945;28;20046;-70
2022/06/26 09:35:53;;;;;;;7.18;2.40;;;;;;;;;;5030732;28;20692;-70
2022/06/26 09:38:24;;;;;;;6.97;2.65;;;;;;;;;;5030931;28;20123;-69
2022/06/26 09:40:52;;;;;;;5.80;2.25;;;;;;;;;;5046335;28;20044;-70
2022/06/26 09:43:32;;;;;;;5.45;2.58;;;;;;;;;;5041072;28;20045;-70
2022/06/26 09:45:59;;;;;;;4.97;2.15;;;;;;;;;;5041984;28;20513;-70
2022/06/26 09:48:25;;;;;;;5.63;2.40;;;;;;;;;;5046328;28;20049;-70
2022/06/26 09:50:52;;;;;;;7.32;2.42;;;;;;;;;;5026445;28;20049;-69
2022/06/26 09:53:19;;;;;;;6.88;2.42;;;;;;;;;;5028719;28;20186;-71
2022/06/26 09:55:47;;;;;;;6.60;2.65;;;;;;;;;;5028539;28;20045;-70
2022/06/26 09:58:13;;;;;;;5.25;2.35;;;;;;;;;;5016961;28;20080;-70
2022/06/26 10:00:40;;;;;;;4.90;2.47;;;;;;;;;;5041558;28;20048;-70
2022/06/26 10:08:38;;;;;;;6.68;3.15;;;;;;;;;;5032917;28;20045;-70
2022/06/26 10:11:05;;;;;;;6.43;2.80;;;;;;;;;;5027923;28;20041;-68
2022/06/26 10:13:33;;;;;;;6.07;2.55;;;;;;;;;;5029970;28;20045;-69
2022/06/26 10:16:11;;;;;;;7.57;3.13;;;;;;;;;;5042673;28;20486;-69
2022/06/26 10:18:43;;;;;;;5.75;2.55;;;;;;;;;;5022243;28;20521;-69
2022/06/26 10:21:12;;;;;;;4.72;2.38;;;;;;;;;;5033545;28;20129;-72
2022/06/26 10:23:39;;;;;;;4.60;1.90;;;;;;;;;;5038526;28;20410;-69
2022/06/26 10:26:16;;;;;;;7.97;2.65;;;;;;;;;;5036011;28;20041;-70
2022/06/26 10:28:57;;;;;;;5.53;2.60;;;;;;;;;;5037921;28;20486;-70
2022/06/26 10:31:23;;;;;;;5.15;2.00;;;;;;;;;;5045812;28;20087;-69
2022/06/26 10:34:11;;;;;;;6.93;2.67;;;;;;;;;;5044740;28;20041;-69
2022/06/26 10:36:37;;;;;;;5.13;2.35;;;;;;;;;;5028321;28;20049;-69
2022/06/26 10:39:05;;;;;;;7.45;2.72;;;;;;;;;;5029568;28;20068;-69
2022/06/26 10:44:28;;;;;;;5.25;2.08;;;;;;;;;;5028601;28;20052;-69
2022/06/26 10:46:58;;;;;;;7.63;2.50;;;;;;;;;;5039163;28;20061;-69
2022/06/26 10:49:24;;;;;;;5.60;2.47;;;;;;;;;;5048664;28;20487;-69
2022/06/26 10:51:50;;;;;;;5.70;2.38;;;;;;;;;;5047387;28;20398;-69
2022/06/26 10:54:20;;;;;;;5.10;2.40;;;22.00;99.90;;;;;;5031138;28;20136;-69
2022/06/26 10:56:47;;;;;;;8.75;2.75;;;;;;;;;;5022243;28;20040;-69
2022/06/26 10:59:17;;;;;;;6.75;2.83;;;;;;;;;;5043924;28;20060;-69
2022/06/26 11:01:43;;;;;;;6.53;2.90;;;;;;;;;;5033366;28;20053;-69
2022/06/26 11:04:09;;;;;;;6.63;3.50;;;;;;;;;;5041216;28;20488;-69
2022/06/26 11:06:39;;;;;;;5.70;2.90;;;;;;;;;;5030626;28;20052;-68
2022/06/26 11:09:05;;;;;;;5.03;2.92;;;;;;;;;;5044196;28;20045;-69
2022/06/26 11:11:32;;;;;;;5.57;3.03;;;;;;;;;;5049787;28;20084;-69
2022/06/26 11:14:00;;;;;;;6.40;3.28;;;;;;;;;;5048703;28;20045;-69
2022/06/26 11:16:32;;;;;;;5.78;3.42;;;;;;;;;;5041721;28;20072;-71
2022/06/26 11:18:58;;;;;;;8.27;3.42;;;;;;;;;;5032298;28;20461;-70
2022/06/26 11:21:31;;;;;;;6.53;3.80;;;;;;;;;;5046142;28;20049;-69
2022/06/26 11:23:57;;;;;;;7.32;3.53;;;;;;;;;;5042226;28;20041;-69
2022/06/26 11:26:23;;;;;;;8.63;3.53;;;;;;;;;;5016891;28;20059;-69
2022/06/26 11:28:56;;;;;;;9.70;3.75;;;;;;;;;;5030121;28;20463;-69
2022/06/26 11:31:23;;;;;;;7.15;3.80;;;;;;;;;;5050014;28;20490;-69
2022/06/26 11:33:49;;;;;;;7.00;3.97;;;;;;;;;;5045096;28;20044;-69
2022/06/26 11:36:16;;;;;;;8.90;4.45;;;;;;;;;;5030619;28;20042;-69
2022/06/26 11:38:48;;;;;;;9.23;4.93;;;;;;;;;;5035288;28;20037;-69
2022/06/26 11:41:14;;;;;;;7.43;4.43;;;;;;;;;;5039565;28;20044;-69
2022/06/26 11:43:48;;;;;;;9.52;4.38;;;;;;;;;;5031776;28;20077;-69
2022/06/26 11:46:14;;;;;;;6.07;3.93;;;;;;;;;;5046046;28;20048;-69
2022/06/26 11:48:41;;;;;;;7.55;3.95;;;;;;;;;;5050877;28;20068;-69
2022/06/26 11:51:07;;;;;;;7.25;4.45;;;;;;;;;;5050208;28;20498;-69
2022/06/26 11:53:34;;;;;;;8.55;3.97;;;;;;;;;;5046557;28;20049;-69
2022/06/26 11:56:01;;;;;;;6.85;4.07;;;;;;;;;;5049065;28;20060;-70
2022/06/26 11:58:31;;;;;;;5.82;4.25;;;;;;;;;;5049703;28;20587;-69
2022/06/26 12:01:10;;;;;;;9.48;4.75;;;;;;;;;;5045795;28;20048;-69
2022/06/26 12:03:49;;;;;;;11.68;5.45;;;;;;;;;;5041977;28;20108;-69
2022/06/26 12:06:34;;;;;;;8.95;5.28;;;;;;;;;;5047973;28;20073;-69
2022/06/26 12:09:01;;;;;;;9.05;6.00;;;;;;;;;;5049063;28;20048;-69
2022/06/26 12:11:27;;;;;;;9.60;5.15;;;;;;;;;;5049562;28;20063;-70
2022/06/26 12:13:54;;;;;;;8.07;5.55;;;;;;;;;;5047570;28;20048;-70
2022/06/26 12:16:20;;;;;;;7.93;5.55;;;;;;;;;;5049416;28;20504;-68
2022/06/26 12:18:48;;;;;;;9.13;6.00;;;;;;;;;;5052510;28;20045;-69
2022/06/26 12:21:18;;;;;;;8.77;6.82;;;;;;;;;;5052201;28;20099;-68
2022/06/26 12:23:45;;;;;;;11.20;7.07;;;22.50;99.90;;;;;;5031847;28;20037;-69
2022/06/26 12:26:15;;;;;;;8.32;5.90;;;22.50;99.90;;;;;;5052574;28;20367;-70
2022/06/26 12:28:50;;;;;;;9.73;5.90;;;22.60;99.90;;;;;;5053898;28;20505;-71
2022/06/26 12:31:19;;;;;;;11.23;5.72;;;22.30;99.90;;;;;;5052634;28;20068;-71
2022/06/26 12:33:46;;;;;;;7.90;5.10;;;22.40;99.90;;;;;;5052283;28;20045;-70
2022/06/26 12:36:12;;;;;;;9.13;4.82;;;;;;;;;;5051407;28;20064;-71
2022/06/26 12:38:39;;;;;;;7.90;4.82;;;22.00;99.90;;;;;;5052577;28;20052;-71
2022/06/26 12:41:06;;;;;;;6.03;4.20;;;22.00;99.90;;;;;;5035468;28;20076;-71
2022/06/26 12:43:33;;;;;;;6.95;4.07;;;;;;;;;;5051813;28;20067;-70
2022/06/26 12:45:59;;;;;;;7.13;3.90;;;;;;;;;;5051772;28;20049;-70
2022/06/26 12:48:25;;;;;;;6.32;2.88;;;;;;;;;;5052019;28;20049;-70
2022/06/26 12:50:51;;;;;;;4.97;2.70;;;;;;;;;;5051012;28;20539;-70
2022/06/26 12:53:17;;;;;;;7.30;3.65;;;;;;;;;;5035713;28;20482;-70
2022/06/26 12:55:43;;;;;;;11.88;4.40;;;;;;;;;;5051902;28;20459;-70
2022/06/26 12:58:09;;;;;;;6.75;4.30;;;;;;;;;;5051159;28;20494;-70
2022/06/26 13:00:35;;;;;;;6.05;3.53;;;;;;;;;;5051957;28;20045;-70
2022/06/26 13:03:01;;;;;;;5.20;3.28;;;;;;;;;;5051530;28;20036;-70
2022/06/26 13:05:27;;;;;;;6.75;3.92;;;;;;;;;;5034665;28;20041;-70
2022/06/26 13:07:53;;;;;;;7.15;4.22;;;;;;;;;;5052853;28;20094;-70
2022/06/26 13:10:20;;;;;;;8.93;4.40;;;;;;;;;;5052159;28;20446;-71
2022/06/26 13:12:46;;;;;;;6.40;4.18;;;;;;;;;;5052210;28;20040;-71
2022/06/26 13:15:12;;;;;;;8.70;4.10;;;;;;;;;;5052811;28;20033;-70
2022/06/26 13:17:38;;;;;;;9.93;4.72;;;;;;;;;;5035259;28;20068;-70
2022/06/26 13:20:04;;;;;;;8.23;4.82;;;22.30;99.90;;;;;;5051497;28;20532;-71
2022/06/26 13:22:30;;;;;;;6.72;5.10;;;;;;;;;;5051158;28;20041;-70
2022/06/26 13:24:56;;;;;;;6.32;4.50;;;;;;;;;;5040810;28;20036;-72
2022/06/26 13:27:22;;;;;;;7.13;4.07;;;;;;;;;;5034067;28;20516;-72
2022/06/26 13:29:48;;;;;;;6.40;3.38;;;;;;;;;;5043148;28;20051;-72
2022/06/26 13:32:14;;;;;;;9.35;4.10;;;;;;;;;;5047576;28;20040;-72
2022/06/26 13:34:40;;;;;;;7.55;3.65;;;;;;;;;;5049950;28;20077;-72
2022/06/26 13:37:06;;;;;;;6.72;3.80;;;;;;;;;;5031358;28;20045;-72
2022/06/26 13:39:32;;;;;;;8.75;4.20;;;;;;;;;;5047928;28;20444;-72
2022/06/26 13:41:58;;;;;;;6.50;3.28;;;;;;;;;;5049261;28;20131;-72
2022/06/26 13:44:24;;;;;;;7.57;3.08;;;;;;;;;;5047030;28;20120;-72
2022/06/26 13:46:50;;;;;;;7.07;4.00;;;;;;;;;;5044211;28;20037;-72
2022/06/26 13:49:16;;;;;;;5.93;3.05;;;;;;;;;;5028045;28;20462;-72
2022/06/26 13:51:42;;;;;;;6.95;3.42;;;;;;;;;;5029009;28;20049;-72
2022/06/26 13:54:08;;;;;;;5.38;2.90;;;;;;;;;;5028834;28;20129;-73
2022/06/26 13:56:34;;;;;;;7.95;3.80;;;;;;;;;;5028743;28;20115;-72
2022/06/26 13:59:00;;;;;;;7.90;4.07;;;;;;;;;;5039942;28;20091;-72
2022/06/26 14:01:27;;;;;;;7.43;4.90;;;;;;;;;;5047113;28;20124;-72
2022/06/26 14:03:53;;;;;;;6.68;4.82;;;;;;;;;;5049143;28;20401;-72
2022/06/26 14:06:19;;;;;;;8.60;5.20;;;;;;;;;;5048408;28;20418;-72
2022/06/26 14:08:45;;;;;;;9.27;5.82;;;;;;;;;;5048634;28;20141;-72
2022/06/26 14:11:12;;;;;;;8.85;5.55;;;;;;;;;;5049653;28;20063;-71
2022/06/26 14:13:38;;;;;;;10.75;5.82;;;;;;;;;;5047704;28;20045;-72
2022/06/26 14:16:04;;;;;;;9.30;5.50;;;20.90;99.90;;;;;;5046821;28;20127;-72
2022/06/26 14:18:30;;;;;;;8.70;5.82;;;;;;;;;;5049373;28;20489;-72
2022/06/26 14:20:56;;;;;;;11.57;5.38;;;;;;;;;;5047681;28;20033;-71
2022/06/26 14:26:07;;;;;;;7.13;5.03;;;20.90;99.90;;;;;;5047157;28;20045;-71
2022/06/26 14:28:35;;;;;;;7.10;5.68;;;21.10;99.90;;;;;;5047067;28;20548;-72
2022/06/26 14:31:03;;;;;;;9.95;7.03;;;21.20;99.90;;;;;;5047872;28;20370;-72
2022/06/26 14:33:29;;;;;;;8.80;5.93;;;;;;;;;;5049257;28;20417;-72
2022/06/26 14:35:55;;;;;;;10.15;5.50;;;;;;;;;;5049860;28;20402;-72
2022/06/26 14:38:21;;;;;;;9.50;5.90;;;;;;;;;;5052354;28;20041;-72
2022/06/26 14:40:48;;;;;;;10.38;6.20;;;;;;;;;;5036447;28;20433;-72